Time;durP1;ratioP1;P1;durP2;ratioP2;P2;SDS_P1;SDS_P2;PMS_P1;PMS_P2;Temp;Humidity;BMP_temperature;BMP_pressure;BME280_temperature;BME280_humidity;BME280_pressure;Samples;Min_cycle;Max_cycle;Signal;HPM_P1;HPM_P2
2021/04/18 00:00:22;;;;;;;26.05;7.40;;;5.20;99.90;;;;;;5012972;28;20458;-83
2021/04/18 00:02:50;;;;;;;18.80;6.38;;;5.20;99.90;;;;;;5027150;28;20050;-84
2021/04/18 00:05:21;;;;;;;20.73;7.38;;;5.10;99.90;;;;;;5010354;28;20061;-84
2021/04/18 00:07:48;;;;;;;27.15;9.10;;;5.10;99.90;;;;;;5027414;28;21517;-84
2021/04/18 00:10:15;;;;;;;29.83;7.95;;;5.10;99.90;;;;;;5011723;28;20157;-85
2021/04/18 00:12:41;;;;;;;20.30;8.02;;;5.10;99.90;;;;;;5012651;28;20578;-85
2021/04/18 00:15:11;;;;;;;18.38;8.43;;;5.00;99.90;;;;;;5018923;28;20061;-85
2021/04/18 00:17:37;;;;;;;21.17;7.72;;;5.00;99.90;;;;;;5012181;28;20070;-83
2021/04/18 00:20:09;;;;;;;17.65;7.88;;;5.00;99.90;;;;;;5010330;28;20046;-85
2021/04/18 00:22:35;;;;;;;23.42;7.80;;;4.90;99.90;;;;;;5019437;28;20564;-84
2021/04/18 00:25:03;;;;;;;18.23;7.85;;;4.90;99.90;;;;;;5014560;28;20049;-84
2021/04/18 00:27:29;;;;;;;20.30;7.32;;;4.90;99.90;;;;;;5003998;28;20134;-83
2021/04/18 00:29:56;;;;;;;19.17;8.32;;;4.80;99.90;;;;;;5011607;28;20094;-84
2021/04/18 00:32:22;;;;;;;20.13;8.80;;;4.80;99.90;;;;;;5025866;28;20548;-82
2021/04/18 00:34:48;;;;;;;24.10;9.95;;;4.80;99.90;;;;;;5010504;28;20128;-83
2021/04/18 00:37:15;;;;;;;15.82;8.95;;;4.70;99.90;;;;;;5012859;28;20074;-85
2021/04/18 00:39:41;;;;;;;21.00;8.82;;;4.70;99.90;;;;;;5011901;28;20089;-85
2021/04/18 00:42:07;;;;;;;15.98;8.68;;;4.70;99.90;;;;;;5026674;28;20050;-84
2021/04/18 00:44:34;;;;;;;21.60;10.07;;;4.70;99.90;;;;;;5012234;28;20038;-83
2021/04/18 00:47:00;;;;;;;21.02;9.15;;;4.70;99.90;;;;;;5011033;28;20549;-84
2021/04/18 00:49:26;;;;;;;17.35;9.45;;;4.60;99.90;;;;;;5012681;28;20270;-85
2021/04/18 00:51:53;;;;;;;19.25;9.43;;;4.60;99.90;;;;;;5010598;28;20077;-84
2021/04/18 00:54:19;;;;;;;22.80;8.95;;;4.50;99.90;;;;;;5009535;28;20049;-84
2021/04/18 00:56:45;;;;;;;22.85;8.48;;;4.50;99.90;;;;;;5023740;28;20049;-84
2021/04/18 00:59:12;;;;;;;19.90;9.88;;;4.50;99.90;;;;;;5016589;28;20072;-84
2021/04/18 01:01:38;;;;;;;15.93;8.63;;;4.50;99.90;;;;;;5008953;28;20050;-84
2021/04/18 01:04:05;;;;;;;22.23;8.48;;;4.50;99.90;;;;;;5010462;28;20061;-84
2021/04/18 01:06:32;;;;;;;20.73;8.90;;;4.40;99.90;;;;;;5024632;28;20110;-84
2021/04/18 01:08:59;;;;;;;27.23;9.93;;;4.40;99.90;;;;;;5011665;28;20525;-85
2021/04/18 01:11:26;;;;;;;24.95;9.52;;;4.40;99.90;;;;;;5024208;28;20117;-84
2021/04/18 01:13:53;;;;;;;17.33;8.63;;;4.30;99.90;;;;;;5025544;28;20069;-85
2021/04/18 01:16:19;;;;;;;25.35;8.93;;;4.30;99.90;;;;;;5017843;28;20046;-84
2021/04/18 01:18:45;;;;;;;22.55;8.70;;;4.20;99.90;;;;;;5025788;28;20106;-84
2021/04/18 01:21:13;;;;;;;19.92;8.25;;;4.20;99.90;;;;;;5011578;28;20053;-83
2021/04/18 01:23:40;;;;;;;13.88;6.97;;;4.20;99.90;;;;;;5008993;28;20054;-84
2021/04/18 01:26:09;;;;;;;16.60;7.90;;;4.10;99.90;;;;;;5004228;28;20489;-83
2021/04/18 01:28:35;;;;;;;14.45;7.15;;;4.00;99.90;;;;;;5025678;28;20053;-84
2021/04/18 01:31:03;;;;;;;28.30;7.80;;;4.00;99.90;;;;;;5025911;28;20073;-84
2021/04/18 01:33:34;;;;;;;17.85;6.65;;;3.90;99.90;;;;;;5011943;28;20050;-84
2021/04/18 01:36:05;;;;;;;23.00;8.43;;;3.90;99.90;;;;;;5010089;28;20050;-84
2021/04/18 01:38:33;;;;;;;19.67;9.30;;;3.90;99.90;;;;;;5016976;28;20575;-84
2021/04/18 01:41:00;;;;;;;28.17;11.95;;;3.90;99.90;;;;;;5017662;28;20072;-83
2021/04/18 01:43:27;;;;;;;28.40;13.68;;;3.90;99.90;;;;;;5023633;28;20082;-85
2021/04/18 01:45:53;;;;;;;31.95;14.73;;;3.80;99.90;;;;;;5013546;28;20065;-84
2021/04/18 01:48:20;;;;;;;34.55;15.23;;;3.80;99.90;;;;;;5008696;28;20054;-84
2021/04/18 01:50:49;;;;;;;34.63;14.57;;;3.80;99.90;;;;;;5023504;28;20113;-85
2021/04/18 01:53:15;;;;;;;31.88;14.60;;;3.80;99.90;;;;;;5007438;28;20045;-83
2021/04/18 01:55:41;;;;;;;25.77;11.75;;;3.70;99.90;;;;;;5011595;28;20084;-84
2021/04/18 01:58:08;;;;;;;28.20;11.45;;;3.70;99.90;;;;;;5010390;28;20054;-84
2021/04/18 02:00:35;;;;;;;28.73;13.85;;;3.70;99.90;;;;;;5025874;28;20088;-84
2021/04/18 02:03:02;;;;;;;35.88;13.88;;;3.70;99.90;;;;;;5008885;28;20085;-84
2021/04/18 02:05:30;;;;;;;27.20;12.80;;;3.70;99.90;;;;;;5025444;28;20060;-85
2021/04/18 02:07:57;;;;;;;21.00;11.13;;;3.70;99.90;;;;;;5007815;28;20362;-85
2021/04/18 02:10:24;;;;;;;20.92;9.60;;;3.70;99.90;;;;;;5012000;28;20046;-85
2021/04/18 02:12:51;;;;;;;26.60;11.65;;;3.60;99.90;;;;;;5021614;28;20049;-85
2021/04/18 02:15:17;;;;;;;20.23;8.75;;;3.60;99.90;;;;;;5008151;28;20520;-85
2021/04/18 02:17:43;;;;;;;19.52;9.35;;;3.60;99.90;;;;;;5007857;28;20112;-84
2021/04/18 02:20:11;;;;;;;25.67;10.80;;;3.60;99.90;;;;;;5010093;28;20046;-86
2021/04/18 02:22:37;;;;;;;19.25;9.73;;;3.60;99.90;;;;;;5008885;28;20103;-84
2021/04/18 02:25:04;;;;;;;20.05;7.90;;;3.50;99.90;;;;;;5008564;28;20485;-84
2021/04/18 02:27:30;;;;;;;21.63;9.15;;;3.40;99.90;;;;;;5022131;28;20080;-84
2021/04/18 02:29:57;;;;;;;20.08;8.43;;;3.40;99.90;;;;;;5017409;28;20099;-84
2021/04/18 02:32:23;;;;;;;20.60;8.23;;;3.30;99.90;;;;;;5009062;28;20053;-83
2021/04/18 02:34:50;;;;;;;20.65;8.40;;;3.30;99.90;;;;;;5010547;28;20046;-84
2021/04/18 02:37:17;;;;;;;19.45;7.30;;;3.30;99.90;;;;;;5007527;28;20508;-84
2021/04/18 02:39:44;;;;;;;21.75;7.60;;;3.20;99.90;;;;;;5007139;28;20489;-84
2021/04/18 02:42:10;;;;;;;17.67;7.00;;;3.10;99.90;;;;;;5024743;28;20109;-85
2021/04/18 02:44:37;;;;;;;12.68;6.75;;;3.10;99.90;;;;;;5016040;28;20096;-83
2021/04/18 02:47:03;;;;;;;22.77;7.10;;;3.10;99.90;;;;;;5010182;28;20050;-84
2021/04/18 02:49:30;;;;;;;15.93;6.38;;;3.00;99.90;;;;;;5009101;28;20148;-84
2021/04/18 02:51:56;;;;;;;16.92;7.32;;;3.00;99.90;;;;;;5011376;28;20455;-84
2021/04/18 02:54:23;;;;;;;16.20;7.78;;;3.00;99.90;;;;;;5009880;28;20084;-85
2021/04/18 02:56:49;;;;;;;12.65;6.82;;;2.90;99.90;;;;;;5008080;28;20072;-84
2021/04/18 02:59:15;;;;;;;17.42;8.02;;;2.80;99.90;;;;;;5027766;28;20074;-84
2021/04/18 03:01:42;;;;;;;13.70;7.80;;;2.80;99.90;;;;;;5014610;28;20100;-84
2021/04/18 03:04:08;;;;;;;17.10;8.73;;;2.80;99.90;;;;;;5012729;28;20480;-84
2021/04/18 03:06:35;;;;;;;15.32;7.47;;;2.70;99.90;;;;;;5011966;28;20050;-84
2021/04/18 03:09:02;;;;;;;21.40;9.00;;;2.60;99.90;;;;;;5011770;28;20241;-85
2021/04/18 03:11:29;;;;;;;16.83;9.00;;;2.60;99.90;;;;;;5016196;28;20053;-83
2021/04/18 03:13:55;;;;;;;18.73;8.57;;;2.60;99.90;;;;;;5013128;28;20145;-84
2021/04/18 03:16:22;;;;;;;17.85;9.07;;;2.50;99.90;;;;;;5010656;28;20096;-85
2021/04/18 03:18:48;;;;;;;21.10;8.57;;;2.50;99.90;;;;;;5014373;28;20647;-84
2021/04/18 03:21:14;;;;;;;19.73;8.85;;;2.40;99.90;;;;;;5015683;28;20085;-84
2021/04/18 03:23:41;;;;;;;17.17;9.48;;;2.40;99.90;;;;;;5018006;28;20133;-84
2021/04/18 03:26:07;;;;;;;21.75;7.70;;;2.40;99.90;;;;;;5027090;28;20050;-84
2021/04/18 03:28:34;;;;;;;18.05;8.32;;;2.30;99.90;;;;;;5020120;28;20050;-85
2021/04/18 03:31:00;;;;;;;18.08;8.23;;;2.30;99.90;;;;;;5038728;28;20161;-85
2021/04/18 03:33:27;;;;;;;11.00;6.78;;;2.30;99.90;;;;;;5023761;28;20596;-85
2021/04/18 03:35:53;;;;;;;16.45;8.25;;;2.30;99.90;;;;;;5031332;28;20094;-84
2021/04/18 03:38:20;;;;;;;33.33;11.95;;;2.30;99.90;;;;;;5025376;28;20493;-83
2021/04/18 03:40:46;;;;;;;33.40;12.55;;;2.20;99.90;;;;;;5024879;28;20048;-85
2021/04/18 03:43:12;;;;;;;47.97;12.18;;;2.20;99.90;;;;;;5024547;28;20050;-84
2021/04/18 03:45:39;;;;;;;27.30;11.00;;;2.30;99.90;;;;;;5019913;28;20107;-85
2021/04/18 03:48:05;;;;;;;21.23;9.90;;;2.30;99.90;;;;;;5013992;28;20056;-84
2021/04/18 03:50:32;;;;;;;17.90;8.38;;;2.30;99.90;;;;;;5020806;28;20048;-85
2021/04/18 03:52:58;;;;;;;37.55;10.27;;;2.40;99.90;;;;;;5014071;28;20104;-84
2021/04/18 03:55:25;;;;;;;40.17;11.52;;;2.40;99.90;;;;;;5030739;28;20786;-84
2021/04/18 03:57:53;;;;;;;47.08;12.95;;;2.40;99.90;;;;;;5026967;28;20096;-84
2021/04/18 04:00:19;;;;;;;51.65;13.88;;;2.50;99.90;;;;;;5012042;28;20080;-84
2021/04/18 04:02:46;;;;;;;109.28;15.18;;;2.50;99.90;;;;;;5015528;28;20477;-83
2021/04/18 04:05:13;;;;;;;226.68;19.45;;;2.60;99.90;;;;;;5013563;28;20046;-84
2021/04/18 04:07:40;;;;;;;123.00;16.67;;;2.60;99.90;;;;;;5011496;28;20074;-84
2021/04/18 04:10:06;;;;;;;58.85;13.65;;;2.70;99.90;;;;;;5010602;28;20088;-86
2021/04/18 04:12:33;;;;;;;140.40;16.63;;;2.70;99.90;;;;;;5027228;28;20072;-84
2021/04/18 04:14:59;;;;;;;207.52;20.63;;;2.80;99.90;;;;;;5012787;28;20054;-84
2021/04/18 04:17:26;;;;;;;244.02;19.88;;;2.80;99.90;;;;;;5011039;28;20457;-84
2021/04/18 04:19:53;;;;;;;204.07;17.88;;;2.80;99.90;;;;;;5010371;28;20050;-84
2021/04/18 04:22:19;;;;;;;329.67;23.75;;;2.80;99.90;;;;;;5009868;28;20500;-85
2021/04/18 04:24:47;;;;;;;227.30;18.92;;;2.80;99.90;;;;;;5004607;28;20110;-85
2021/04/18 04:27:14;;;;;;;214.52;19.80;;;2.90;99.90;;;;;;5019371;28;20501;-83
2021/04/18 04:29:41;;;;;;;242.63;19.80;;;2.90;99.90;;;;;;5024434;28;20053;-84
2021/04/18 04:32:07;;;;;;;435.35;28.45;;;2.90;99.90;;;;;;5025191;28;20050;-83
2021/04/18 04:34:34;;;;;;;436.55;26.10;;;2.90;99.90;;;;;;5006535;28;20678;-84
2021/04/18 04:37:01;;;;;;;345.38;27.15;;;2.90;99.90;;;;;;5011860;28;20049;-84
2021/04/18 04:39:27;;;;;;;233.65;22.23;;;2.90;99.90;;;;;;5009391;28;20547;-85
2021/04/18 04:41:54;;;;;;;188.02;18.55;;;2.90;99.90;;;;;;5008251;28;20110;-84
2021/04/18 04:44:20;;;;;;;96.15;15.30;;;2.80;99.90;;;;;;5008995;28;20117;-84
2021/04/18 04:46:46;;;;;;;80.38;13.00;;;2.80;99.90;;;;;;5026284;28;20054;-87
2021/04/18 04:49:14;;;;;;;75.05;12.25;;;2.80;99.90;;;;;;5009512;28;20054;-84
2021/04/18 04:51:40;;;;;;;30.45;10.60;;;2.70;99.90;;;;;;5025336;28;20136;-84
2021/04/18 04:54:10;;;;;;;26.83;10.05;;;2.70;99.90;;;;;;5009492;28;20056;-84
2021/04/18 04:56:36;;;;;;;46.65;11.75;;;2.70;99.90;;;;;;5030217;28;20053;-86
2021/04/18 04:59:03;;;;;;;24.13;10.32;;;2.70;99.90;;;;;;5028356;28;20565;-85
2021/04/18 05:01:29;;;;;;;16.50;9.50;;;2.60;99.90;;;;;;5012902;28;20062;-85
2021/04/18 05:03:56;;;;;;;15.75;10.43;;;2.60;99.90;;;;;;5016579;28;21661;-85
2021/04/18 05:06:22;;;;;;;15.23;9.63;;;2.60;99.90;;;;;;5014608;28;20084;-85
2021/04/18 05:08:48;;;;;;;22.05;12.40;;;2.60;99.90;;;;;;5011546;28;20125;-85
2021/04/18 05:11:15;;;;;;;17.25;10.48;;;2.60;99.90;;;;;;5028629;28;20050;-85
2021/04/18 05:13:41;;;;;;;17.98;9.90;;;2.70;99.90;;;;;;5011336;28;20108;-85
2021/04/18 05:16:07;;;;;;;17.02;10.40;;;2.60;99.90;;;;;;5018896;28;20460;-85
2021/04/18 05:18:34;;;;;;;11.98;8.52;;;2.60;99.90;;;;;;5013298;28;20050;-85
2021/04/18 05:21:00;;;;;;;17.70;9.27;;;2.60;99.90;;;;;;5028705;28;20049;-86
2021/04/18 05:23:27;;;;;;;12.63;8.25;;;2.70;99.90;;;;;;5025373;28;20061;-85
2021/04/18 05:25:54;;;;;;;11.43;8.00;;;2.70;99.90;;;;;;5013831;28;20110;-84
2021/04/18 05:28:20;;;;;;;13.43;8.98;;;2.80;99.90;;;;;;5012872;28;20131;-84
2021/04/18 05:30:47;;;;;;;12.93;8.20;;;2.80;99.90;;;;;;5013367;28;20049;-84
2021/04/18 05:33:13;;;;;;;14.10;8.43;;;2.90;99.90;;;;;;5029165;28;20132;-85
2021/04/18 05:35:40;;;;;;;9.07;7.25;;;2.90;99.90;;;;;;5017575;28;20065;-85
2021/04/18 05:38:06;;;;;;;9.40;7.32;;;3.00;99.90;;;;;;5006638;28;20050;-85
2021/04/18 05:40:33;;;;;;;34.33;10.63;;;3.10;99.90;;;;;;5019115;28;20068;-85
2021/04/18 05:42:59;;;;;;;18.95;9.32;;;3.20;99.90;;;;;;5011464;28;20042;-86
2021/04/18 05:45:26;;;;;;;17.38;9.30;;;3.30;99.90;;;;;;5010490;28;20057;-85
2021/04/18 05:47:56;;;;;;;13.73;8.65;;;3.40;99.90;;;;;;5014078;28;20071;-86
2021/04/18 05:50:23;;;;;;;14.57;9.35;;;3.50;99.90;;;;;;5018352;28;20623;-85
2021/04/18 05:52:49;;;;;;;14.02;9.30;;;3.60;99.90;;;;;;5029161;28;20049;-84
2021/04/18 05:55:15;;;;;;;12.75;8.35;;;3.70;99.90;;;;;;5014761;28;20410;-84
2021/04/18 05:57:42;;;;;;;14.32;9.45;;;3.80;99.90;;;;;;5018484;28;20053;-86
2021/04/18 06:00:09;;;;;;;13.85;8.95;;;4.00;99.90;;;;;;5023777;28;20140;-85
2021/04/18 06:02:35;;;;;;;13.85;9.20;;;4.10;99.90;;;;;;5011534;28;20090;-84
2021/04/18 06:05:02;;;;;;;14.20;7.68;;;4.40;99.90;;;;;;5017704;28;20405;-85
2021/04/18 06:07:34;;;;;;;16.35;9.30;;;4.60;99.90;;;;;;5016966;28;20069;-84
2021/04/18 06:10:00;;;;;;;13.48;8.65;;;4.90;99.90;;;;;;5011251;28;20053;-87
2021/04/18 06:12:27;;;;;;;14.73;9.43;;;5.10;99.90;;;;;;5010843;28;20085;-86
2021/04/18 06:14:53;;;;;;;14.27;9.35;;;5.30;99.90;;;;;;5010746;28;20066;-85
2021/04/18 06:17:19;;;;;;;10.43;7.85;;;5.40;99.90;;;;;;5011726;28;20105;-85
2021/04/18 06:19:46;;;;;;;13.88;8.57;;;5.60;99.90;;;;;;5016366;28;20532;-85
2021/04/18 06:22:12;;;;;;;12.40;8.25;;;5.70;99.90;;;;;;5022730;28;20082;-85
2021/04/18 06:24:38;;;;;;;13.43;8.98;;;5.90;99.90;;;;;;5001851;28;20049;-85
2021/04/18 06:27:06;;;;;;;9.27;7.00;;;6.10;99.90;;;;;;5009633;28;20064;-85
2021/04/18 06:29:32;;;;;;;14.15;8.65;;;6.50;99.90;;;;;;5022360;28;20053;-87
2021/04/18 06:31:58;;;;;;;20.90;17.10;;;6.60;99.90;;;;;;4984665;28;20784;-87
2021/04/18 06:34:25;;;;;;;11.10;9.90;;;6.70;99.90;;;;;;4990588;28;20046;-87
2021/04/18 06:36:52;;;;;;;9.07;7.88;;;6.80;99.90;;;;;;5015195;28;20146;-87
2021/04/18 06:39:18;;;;;;;8.48;7.57;;;7.00;99.90;;;;;;5009243;28;20030;-87
2021/04/18 06:41:53;;;;;;;8.65;6.10;;;7.10;99.90;;;;;;5024070;28;20569;-86
2021/04/18 06:44:20;;;;;;;20.63;14.68;;;7.20;99.90;;;;;;5023336;28;20076;-86
2021/04/18 06:46:51;;;;;;;23.02;12.57;;;7.20;99.90;;;;;;5004317;28;20058;-85
2021/04/18 06:49:18;;;;;;;21.38;14.35;;;7.40;99.90;;;;;;5021323;28;20053;-86
2021/04/18 06:51:46;;;;;;;19.42;11.18;;;7.40;99.90;;;;;;5012884;28;20054;-87
2021/04/18 06:54:13;;;;;;;14.20;8.00;;;7.30;99.90;;;;;;5025645;28;20132;-86
2021/04/18 06:56:39;;;;;;;15.75;8.10;;;7.20;99.90;;;;;;5009780;28;20100;-86
2021/04/18 06:59:05;;;;;;;27.58;9.45;;;7.10;99.90;;;;;;5008255;28;20050;-87
2021/04/18 07:01:34;;;;;;;15.55;9.93;;;7.00;99.90;;;;;;5010312;28;20084;-86
2021/04/18 07:04:15;;;;;;;28.00;8.73;;;7.00;99.90;;;;;;5014806;28;20058;-85
2021/04/18 07:06:53;;;;;;;18.25;10.07;;;6.90;99.90;;;;;;5005961;28;20078;-87
2021/04/18 07:09:23;;;;;;;16.15;9.48;;;7.00;99.90;;;;;;4994133;28;20796;-87
2021/04/18 07:11:51;;;;;;;21.48;11.23;;;7.00;99.90;;;;;;4974006;28;20066;-87
2021/04/18 07:14:33;;;;;;;14.70;8.20;;;7.00;99.90;;;;;;5009611;28;20128;-87
2021/04/18 07:17:12;;;;;;;15.00;8.88;;;7.10;99.90;;;;;;5007842;28;20058;-87
2021/04/18 07:19:44;;;;;;;17.50;10.48;;;7.30;99.90;;;;;;5002463;28;20054;-87
2021/04/18 07:22:11;;;;;;;16.70;8.75;;;7.50;99.90;;;;;;5003492;28;20170;-87
2021/04/18 07:24:53;;;;;;;11.38;7.85;;;7.60;99.90;;;;;;5007862;28;20058;-87
2021/04/18 07:27:46;;;;;;;17.83;9.82;;;7.70;99.90;;;;;;4995134;28;20053;-87
2021/04/18 07:30:15;;;;;;;18.17;8.52;;;8.00;99.90;;;;;;5002188;28;20144;-87
2021/04/18 07:32:41;;;;;;;11.60;8.02;;;8.30;99.90;;;;;;5002340;28;20448;-87
2021/04/18 07:35:31;;;;;;;10.25;7.10;;;8.70;99.90;;;;;;5013812;28;20060;-87
2021/04/18 07:38:24;;;;;;;9.88;6.57;;;9.30;99.90;;;;;;4999006;28;20053;-87
2021/04/18 07:40:56;;;;;;;11.13;6.28;;;9.90;99.90;;;;;;4998570;28;20097;-87
2021/04/18 07:43:24;;;;;;;12.95;6.85;;;10.40;99.90;;;;;;5004277;28;20501;-87
2021/04/18 07:45:51;;;;;;;15.15;6.90;;;10.70;99.90;;;;;;5015647;28;20127;-87
2021/04/18 07:48:19;;;;;;;10.52;6.38;;;11.00;99.90;;;;;;5013159;28;20130;-87
2021/04/18 07:50:48;;;;;;;12.52;6.05;;;11.20;99.90;;;;;;5018839;28;20053;-87
2021/04/18 07:53:18;;;;;;;11.80;5.75;;;11.40;99.90;;;;;;5013567;28;20069;-87
2021/04/18 07:55:46;;;;;;;13.73;6.68;;;11.50;99.90;;;;;;5000342;28;20090;-87
2021/04/18 07:58:12;;;;;;;11.20;5.90;;;11.50;99.90;;;;;;5005545;28;20100;-87
2021/04/18 08:00:39;;;;;;;15.38;6.60;;;11.50;99.90;;;;;;4985580;28;20261;-87
2021/04/18 08:03:06;;;;;;;9.90;6.15;;;11.50;99.90;;;;;;5003504;28;20066;-87
2021/04/18 08:05:35;;;;;;;16.83;6.45;;;11.40;99.90;;;;;;5020537;28;20054;-87
2021/04/18 08:08:13;;;;;;;13.93;6.60;;;11.30;99.90;;;;;;5016349;28;20147;-87
2021/04/18 08:10:41;;;;;;;14.23;6.88;;;11.30;99.90;;;;;;5013995;28;20062;-87
2021/04/18 08:13:16;;;;;;;13.55;8.43;;;11.40;99.90;;;;;;5008324;28;20460;-87
2021/04/18 08:15:42;;;;;;;13.02;7.43;;;11.40;99.90;;;;;;5010582;28;20092;-87
2021/04/18 08:18:12;;;;;;;13.77;6.15;;;11.40;99.90;;;;;;5012674;28;20053;-87
2021/04/18 08:20:44;;;;;;;13.85;6.13;;;11.40;99.90;;;;;;4996825;28;20049;-87
2021/04/18 08:23:15;;;;;;;13.52;6.93;;;11.60;99.90;;;;;;5011889;28;20395;-87
2021/04/18 08:26:03;;;;;;;14.95;6.97;;;11.70;99.90;;;;;;4995435;28;20125;-87
2021/04/18 08:28:30;;;;;;;11.15;7.13;;;11.80;99.90;;;;;;5014070;28;20065;-87
2021/04/18 08:31:02;;;;;;;13.32;6.50;;;12.00;99.90;;;;;;5000498;28;20158;-88
2021/04/18 08:33:41;;;;;;;15.00;6.45;;;12.10;99.90;;;;;;5015291;28;20053;-86
2021/04/18 08:36:29;;;;;;;13.13;6.43;;;12.30;99.90;;;;;;5016768;28;20057;-86
2021/04/18 08:38:59;;;;;;;16.75;6.32;;;12.50;99.90;;;;;;5008584;28;20060;-86
2021/04/18 08:41:42;;;;;;;14.63;6.75;;;12.70;99.90;;;;;;4998707;28;20434;-86
2021/04/18 08:44:28;;;;;;;19.07;6.30;;;12.90;99.90;;;;;;5004038;28;20056;-87
2021/04/18 08:47:06;;;;;;;13.95;6.32;;;13.10;99.90;;;;;;5009452;28;20137;-86
2021/04/18 08:49:42;;;;;;;14.18;5.53;;;13.40;99.90;;;;;;4999559;28;20057;-86
2021/04/18 08:52:24;;;;;;;12.15;5.65;;;13.60;99.90;;;;;;5018794;28;20118;-86
2021/04/18 08:54:54;;;;;;;15.63;6.25;;;13.60;99.90;;;;;;5000020;28;20050;-87
2021/04/18 08:57:29;;;;;;;13.50;6.25;;;13.60;99.90;;;;;;5003126;28;20111;-87
2021/04/18 09:00:01;;;;;;;9.88;5.30;;;13.50;99.90;;;;;;4995649;28;22391;-87
2021/04/18 09:02:29;;;;;;;14.77;6.63;;;13.50;99.90;;;;;;5016858;28;20165;-87
2021/04/18 09:04:58;;;;;;;15.30;6.00;;;13.50;99.90;;;;;;5011174;28;20060;-87
2021/04/18 09:07:28;;;;;;;11.98;5.25;;;13.60;99.90;;;;;;5018280;28;20053;-86
2021/04/18 09:10:04;;;;;;;9.98;5.28;;;13.60;99.90;;;;;;5017900;28;20046;-87
2021/04/18 09:12:31;;;;;;;13.77;5.30;;;13.50;99.90;;;;;;5001079;28;20130;-87
2021/04/18 09:14:57;;;;;;;12.45;5.88;;;13.60;99.90;;;;;;5019007;28;20141;-86
2021/04/18 09:17:25;;;;;;;12.95;6.00;;;13.60;99.90;;;;;;5005574;28;20126;-86
2021/04/18 09:20:02;;;;;;;9.88;5.38;;;13.70;99.90;;;;;;5000319;28;20104;-86
2021/04/18 09:22:30;;;;;;;8.00;4.47;;;13.80;99.90;;;;;;5002627;28;20042;-86
2021/04/18 09:25:08;;;;;;;7.97;4.80;;;14.00;99.90;;;;;;5016989;28;20321;-86
2021/04/18 09:27:38;;;;;;;6.30;4.43;;;14.30;99.90;;;;;;5002855;28;20057;-86
2021/04/18 09:30:16;;;;;;;6.95;4.32;;;14.50;98.30;;;;;;5018116;28;20504;-87
2021/04/18 09:32:45;;;;;;;10.15;4.70;;;14.60;96.00;;;;;;5011870;28;20060;-87
2021/04/18 09:35:14;;;;;;;10.23;4.72;;;14.50;95.40;;;;;;5018922;28;20056;-86
2021/04/18 09:37:43;;;;;;;13.32;5.53;;;14.30;95.60;;;;;;5005082;28;20050;-86
2021/04/18 09:40:16;;;;;;;9.77;4.60;;;14.30;98.30;;;;;;5001702;28;20111;-86
2021/04/18 09:42:46;;;;;;;7.28;4.88;;;14.50;95.10;;;;;;5013829;28;20057;-86
2021/04/18 09:45:15;;;;;;;10.20;5.07;;;14.50;95.50;;;;;;5010210;28;20505;-86
2021/04/18 09:47:53;;;;;;;12.90;6.15;;;14.60;93.40;;;;;;4995338;28;20462;-86
2021/04/18 09:50:24;;;;;;;9.95;5.07;;;14.50;95.30;;;;;;5019727;28;20128;-86
2021/04/18 09:53:09;;;;;;;12.40;5.53;;;14.60;93.40;;;;;;4986664;28;20478;-86
2021/04/18 09:55:52;;;;;;;8.27;4.28;;;14.50;93.30;;;;;;4993135;28;20068;-86
2021/04/18 09:58:30;;;;;;;12.97;4.53;;;14.70;92.70;;;;;;4986587;28;20096;-86
2021/04/18 10:00:57;;;;;;;8.38;3.90;;;14.80;91.40;;;;;;5014016;28;20501;-86
2021/04/18 10:03:38;;;;;;;10.63;5.18;;;14.90;91.80;;;;;;5002196;28;20049;-86
2021/04/18 10:06:07;;;;;;;10.25;4.35;;;15.00;92.40;;;;;;5002647;28;20081;-86
2021/04/18 10:08:56;;;;;;;15.23;4.65;;;15.10;90.90;;;;;;4998605;28;20486;-87
2021/04/18 10:11:22;;;;;;;6.65;4.18;;;15.20;92.50;;;;;;5005245;28;20073;-87
2021/04/18 10:13:54;;;;;;;10.52;5.25;;;15.40;90.40;;;;;;5018226;28;20081;-86
2021/04/18 10:16:31;;;;;;;7.05;4.00;;;15.60;88.00;;;;;;5001759;28;20103;-87
2021/04/18 10:19:10;;;;;;;7.38;4.47;;;15.70;86.00;;;;;;5006263;28;20474;-86
2021/04/18 10:21:41;;;;;;;8.05;4.30;;;15.90;84.00;;;;;;5018689;28;20058;-86
2021/04/18 10:24:30;;;;;;;7.45;3.78;;;16.00;81.40;;;;;;5020181;28;20136;-86
2021/04/18 10:26:56;;;;;;;7.25;4.00;;;16.20;81.50;;;;;;5021147;28;20076;-85
2021/04/18 10:29:22;;;;;;;7.22;3.58;;;16.30;80.50;;;;;;5006411;28;20116;-86
2021/04/18 10:31:49;;;;;;;6.78;3.80;;;16.40;76.20;;;;;;5004969;28;20164;-85
2021/04/18 10:34:18;;;;;;;4.78;3.05;;;16.60;73.20;;;;;;5018594;28;20069;-86
2021/04/18 10:36:46;;;;;;;13.95;4.45;;;16.70;72.10;;;;;;5004406;28;20630;-86
2021/04/18 10:39:14;;;;;;;7.18;3.60;;;16.80;71.50;;;;;;5017908;28;20064;-86
2021/04/18 10:41:45;;;;;;;7.80;3.38;;;17.00;70.70;;;;;;5018021;28;20619;-86
2021/04/18 10:44:17;;;;;;;5.35;3.58;;;17.10;69.40;;;;;;5002761;28;20077;-86
2021/04/18 10:46:53;;;;;;;7.35;3.53;;;17.30;66.30;;;;;;4992485;28;20060;-86
2021/04/18 10:49:20;;;;;;;6.47;2.92;;;17.30;65.20;;;;;;5001644;28;20477;-86
2021/04/18 10:51:50;;;;;;;5.65;3.05;;;17.30;65.40;;;;;;5016695;28;20054;-87
2021/04/18 10:54:17;;;;;;;10.50;4.20;;;17.30;64.50;;;;;;4999903;28;20060;-86
2021/04/18 10:56:47;;;;;;;7.70;4.18;;;17.30;64.70;;;;;;5002429;28;20128;-86
2021/04/18 10:59:14;;;;;;;7.88;3.55;;;17.30;64.50;;;;;;5016196;28;20083;-86
2021/04/18 11:01:41;;;;;;;7.32;3.13;;;17.50;64.70;;;;;;4995627;28;20057;-86
2021/04/18 11:04:08;;;;;;;4.97;2.97;;;17.60;61.70;;;;;;5003799;28;20050;-86
2021/04/18 11:06:38;;;;;;;10.25;3.42;;;17.60;61.00;;;;;;5008372;28;20401;-86
2021/04/18 11:09:07;;;;;;;6.63;3.85;;;17.70;64.40;;;;;;5008440;28;20082;-86
2021/04/18 11:11:35;;;;;;;8.32;3.95;;;17.90;63.80;;;;;;5018008;28;20580;-86
2021/04/18 11:14:01;;;;;;;7.15;3.47;;;18.10;64.80;;;;;;5021557;28;20038;-86
2021/04/18 11:16:28;;;;;;;6.57;3.63;;;18.30;63.60;;;;;;5008048;28;20069;-86
2021/04/18 11:18:54;;;;;;;10.30;4.18;;;18.60;63.30;;;;;;5019427;28;20123;-86
2021/04/18 11:21:22;;;;;;;10.98;4.10;;;18.60;59.90;;;;;;5005310;28;20132;-86
2021/04/18 11:23:50;;;;;;;6.95;3.70;;;18.60;61.50;;;;;;5011501;28;20050;-86
2021/04/18 11:26:16;;;;;;;10.95;4.05;;;18.70;61.10;;;;;;5021772;28;20049;-87
2021/04/18 11:28:43;;;;;;;9.98;4.38;;;18.80;59.60;;;;;;5002343;28;20054;-86
2021/04/18 11:31:10;;;;;;;13.52;4.80;;;18.70;60.50;;;;;;5014403;28;20137;-86
2021/04/18 11:33:36;;;;;;;10.57;5.28;;;18.80;59.90;;;;;;5011912;28;20053;-86
2021/04/18 11:36:04;;;;;;;8.82;3.78;;;18.80;62.90;;;;;;5019193;28;20043;-86
2021/04/18 11:38:30;;;;;;;6.63;4.28;;;18.80;59.40;;;;;;4997819;28;20128;-86
2021/04/18 11:40:59;;;;;;;8.25;3.83;;;19.00;59.60;;;;;;5004816;28;20607;-86
2021/04/18 11:43:25;;;;;;;9.15;4.82;;;19.10;59.80;;;;;;5005505;28;20065;-86
2021/04/18 11:45:56;;;;;;;11.93;4.65;;;19.10;60.00;;;;;;5005749;28;20046;-86
2021/04/18 11:48:23;;;;;;;10.75;4.47;;;19.20;60.50;;;;;;5005844;28;20073;-86
2021/04/18 11:50:53;;;;;;;8.68;4.93;;;19.20;60.00;;;;;;5004752;28;20057;-86
2021/04/18 11:53:19;;;;;;;17.05;4.97;;;19.20;60.90;;;;;;5006610;28;20041;-85
2021/04/18 11:55:45;;;;;;;12.00;6.68;;;19.30;64.00;;;;;;5020695;28;20410;-86
2021/04/18 11:58:14;;;;;;;12.02;6.47;;;19.50;63.70;;;;;;5012916;28;20804;-86
2021/04/18 12:00:40;;;;;;;11.82;5.85;;;19.70;63.10;;;;;;5024001;28;20057;-86
2021/04/18 12:03:07;;;;;;;14.15;5.88;;;20.00;64.70;;;;;;5020732;28;20057;-86
2021/04/18 12:05:34;;;;;;;15.07;5.78;;;20.30;60.90;;;;;;5006447;28;20052;-86
2021/04/18 12:08:00;;;;;;;16.77;7.15;;;20.50;61.80;;;;;;5020620;28;20104;-86
2021/04/18 12:10:27;;;;;;;10.63;6.20;;;20.80;62.10;;;;;;5021956;28;20085;-86
2021/04/18 12:12:53;;;;;;;14.85;5.97;;;21.00;59.60;;;;;;5006608;28;20050;-86
2021/04/18 12:15:23;;;;;;;10.13;6.07;;;21.20;59.30;;;;;;5003569;28;20081;-85
2021/04/18 12:17:49;;;;;;;13.13;6.03;;;21.60;60.40;;;;;;5016135;28;20145;-86
2021/04/18 12:20:18;;;;;;;10.65;6.10;;;22.10;56.60;;;;;;5008004;28;20049;-87
2021/04/18 12:22:45;;;;;;;11.55;6.00;;;22.50;58.00;;;;;;5021930;28;20128;-86
2021/04/18 12:25:19;;;;;;;11.75;6.45;;;22.80;55.40;;;;;;5012183;28;20053;-86
2021/04/18 12:27:45;;;;;;;15.38;6.40;;;23.10;54.90;;;;;;5004736;28;20076;-86
2021/04/18 12:30:14;;;;;;;12.48;6.20;;;23.50;52.80;;;;;;5020227;28;20065;-86
2021/04/18 12:32:45;;;;;;;11.88;6.43;;;23.90;52.60;;;;;;4996198;28;20061;-86
2021/04/18 12:35:12;;;;;;;9.57;5.28;;;24.40;50.60;;;;;;5017281;28;20382;-86
2021/04/18 12:37:38;;;;;;;14.02;6.57;;;25.10;48.70;;;;;;5007758;28;20383;-87
2021/04/18 12:40:05;;;;;;;9.60;5.63;;;25.80;46.90;;;;;;5011396;28;20144;-87
2021/04/18 12:42:32;;;;;;;9.88;6.18;;;26.40;44.80;;;;;;5011395;28;20049;-86
2021/04/18 12:44:58;;;;;;;10.98;5.78;;;26.80;45.60;;;;;;5011852;28;20054;-86
2021/04/18 12:47:25;;;;;;;9.48;6.10;;;27.20;43.20;;;;;;5007726;28;20454;-86
2021/04/18 12:49:52;;;;;;;10.52;5.53;;;27.40;44.30;;;;;;5001850;28;20057;-86